createdAt,value
2019-01-31T00:01:38.343Z,8.60
2019-01-31T00:04:51.847Z,8.47
2019-01-31T00:07:54.325Z,8.30
2019-01-31T00:10:59.045Z,8.53
2019-01-31T00:14:17.013Z,8.37
2019-01-31T00:17:27.088Z,8.43
2019-01-31T00:20:43.176Z,7.73
2019-01-31T00:24:04.705Z,7.53
2019-01-31T00:27:17.756Z,7.90
2019-01-31T00:30:09.871Z,7.73
2019-01-31T00:33:24.409Z,8.50
2019-01-31T00:36:23.347Z,8.50
2019-01-31T00:39:14.857Z,8.43
2019-01-31T00:42:18.987Z,8.50
2019-01-31T00:45:26.248Z,8.10
2019-01-31T00:48:44.133Z,8.23
2019-01-31T00:51:42.830Z,9.03
2019-01-31T00:54:50.515Z,8.20
2019-01-31T00:58:23.341Z,9.50
2019-01-31T01:01:37.267Z,9.60
2019-01-31T01:04:44.230Z,10.07
2019-01-31T01:08:07.923Z,10.37
2019-01-31T01:10:45.500Z,9.37
2019-01-31T01:13:58.645Z,10.33
2019-01-31T01:17:15.174Z,11.00
2019-01-31T01:20:18.854Z,11.80
2019-01-31T01:22:53.430Z,12.03
2019-01-31T01:26:15.657Z,12.60
2019-01-31T01:29:20.320Z,13.73
2019-01-31T01:32:13.886Z,13.90
2019-01-31T01:35:01.223Z,14.97
2019-01-31T01:38:04.656Z,14.53
2019-01-31T01:41:31.368Z,15.00
2019-01-31T01:44:45.320Z,15.77
2019-01-31T01:47:37.460Z,16.83
2019-01-31T01:50:17.710Z,18.30
2019-01-31T01:53:37.134Z,19.00
2019-01-31T01:56:38.605Z,19.10
2019-01-31T02:00:05.666Z,19.82
2019-01-31T02:03:14.042Z,18.77
2019-01-31T02:06:30.420Z,18.80
2019-01-31T02:09:33.934Z,19.30
2019-01-31T02:12:34.495Z,20.57
2019-01-31T02:15:34.736Z,22.10
2019-01-31T02:18:29.722Z,23.77
2019-01-31T02:21:42.975Z,24.27
2019-01-31T02:24:33.950Z,24.00
2019-01-31T02:27:33.796Z,23.37
2019-01-31T02:30:31.478Z,24.27
2019-01-31T02:33:42.776Z,25.73
2019-01-31T02:36:36.578Z,23.40
2019-01-31T02:39:28.087Z,23.43
2019-01-31T02:42:55.396Z,23.23
2019-01-31T02:45:45.722Z,22.97
2019-01-31T02:48:24.917Z,23.93
2019-01-31T02:51:41.653Z,25.93
2019-01-31T02:54:45.072Z,23.40
2019-01-31T02:58:02.824Z,22.50
2019-01-31T03:00:51.664Z,19.63
2019-01-31T03:04:24.151Z,20.93
2019-01-31T03:07:35.251Z,19.03
2019-01-31T03:10:47.709Z,20.67
2019-01-31T03:13:42.989Z,19.53
2019-01-31T03:17:02.777Z,19.10
2019-01-31T03:19:47.596Z,20.97
2019-01-31T03:22:58.159Z,20.40
2019-01-31T03:25:51.639Z,20.33
2019-01-31T03:28:31.789Z,22.00
2019-01-31T03:32:04.424Z,21.53
2019-01-31T03:34:59.458Z,21.33
2019-01-31T03:37:58.004Z,23.00
2019-01-31T03:40:55.802Z,21.47
2019-01-31T03:44:07.145Z,23.27
2019-01-31T03:47:11.454Z,22.53
2019-01-31T03:50:09.184Z,25.00
2019-01-31T03:53:28.642Z,24.27
2019-01-31T03:56:44.147Z,23.93
2019-01-31T03:59:47.982Z,23.77
2019-01-31T04:02:41.107Z,22.77
2019-01-31T04:05:36.164Z,25.10
2019-01-31T04:08:06.972Z,22.53
2019-01-31T04:10:37.564Z,22.93
2019-01-31T04:13:09.844Z,23.17
2019-01-31T04:15:40.365Z,22.80
2019-01-31T04:18:10.679Z,21.80
2019-01-31T04:20:40.900Z,23.43
2019-01-31T04:23:11.121Z,21.80
2019-01-31T04:25:41.548Z,20.90
2019-01-31T04:28:11.748Z,20.83
2019-01-31T04:30:41.949Z,20.97
2019-01-31T04:33:12.431Z,20.93
2019-01-31T04:35:43.022Z,20.47
2019-01-31T04:38:13.579Z,20.70
2019-01-31T04:40:44.197Z,20.67
2019-01-31T04:43:14.815Z,21.83
2019-01-31T04:45:45.088Z,22.80
2019-01-31T04:48:15.334Z,22.67
2019-01-31T04:50:45.650Z,23.57
2019-01-31T04:53:16.255Z,22.77
2019-01-31T04:55:46.529Z,21.97
2019-01-31T04:58:17.113Z,22.40
2019-01-31T05:00:47.384Z,20.03
2019-01-31T05:03:17.607Z,20.50
2019-01-31T05:05:48.187Z,21.97
2019-01-31T05:08:18.442Z,20.70
2019-01-31T05:10:48.825Z,20.27
2019-01-31T05:13:19.683Z,20.80
2019-01-31T05:15:49.952Z,20.17
2019-01-31T05:18:20.288Z,19.67
2019-01-31T05:20:50.511Z,20.53
2019-01-31T05:23:20.758Z,19.77
2019-01-31T05:25:51.049Z,19.33
2019-01-31T05:28:21.651Z,20.60
2019-01-31T05:30:51.849Z,20.27
2019-01-31T05:33:22.038Z,20.47
2019-01-31T05:35:52.173Z,19.43
2019-01-31T05:38:22.763Z,18.90
2019-01-31T05:40:55.588Z,18.50
2019-01-31T05:43:25.206Z,19.33
2019-01-31T05:45:55.322Z,18.53
2019-01-31T05:48:25.939Z,18.80
2019-01-31T05:50:56.150Z,18.17
2019-01-31T05:53:26.666Z,17.70
2019-01-31T05:55:57.828Z,17.20
2019-01-31T05:58:28.483Z,17.47
2019-01-31T06:00:58.677Z,17.67
2019-01-31T06:03:29.250Z,18.03
2019-01-31T06:05:59.522Z,18.07
2019-01-31T06:08:30.029Z,18.50
2019-01-31T06:11:07.487Z,19.90
2019-01-31T06:13:32.489Z,19.33
2019-01-31T06:16:02.711Z,19.93
2019-01-31T06:18:33.342Z,20.50
2019-01-31T06:21:03.908Z,19.77
2019-01-31T06:23:34.551Z,20.53
2019-01-31T06:26:04.809Z,20.87
2019-01-31T06:28:34.998Z,21.00
2019-01-31T06:31:05.207Z,20.70
2019-01-31T06:33:35.402Z,20.90
2019-01-31T06:36:06.004Z,21.60
2019-01-31T06:38:36.195Z,21.07
2019-01-31T06:41:06.490Z,20.23
2019-01-31T06:43:36.721Z,20.90
2019-01-31T06:46:09.074Z,20.30
2019-01-31T06:48:39.266Z,21.67
2019-01-31T06:51:10.536Z,20.92
2019-01-31T06:53:40.983Z,20.43
2019-01-31T06:56:11.153Z,20.60
2019-01-31T06:58:41.384Z,21.37
2019-01-31T07:01:11.693Z,20.33
2019-01-31T07:03:41.975Z,20.77
2019-01-31T07:06:12.287Z,20.03
2019-01-31T07:08:42.546Z,18.50
2019-01-31T07:11:12.784Z,19.67
2019-01-31T07:13:43.061Z,19.73
2019-01-31T07:16:13.407Z,19.83
2019-01-31T07:18:43.959Z,20.23
2019-01-31T07:21:14.183Z,19.67
2019-01-31T07:23:46.003Z,19.23
2019-01-31T07:26:16.446Z,19.47
2019-01-31T07:28:47.435Z,20.27
2019-01-31T07:31:17.637Z,19.60
2019-01-31T07:33:48.200Z,19.67
2019-01-31T07:36:18.499Z,19.93
2019-01-31T07:38:49.529Z,19.90
2019-01-31T07:41:19.775Z,18.70
2019-01-31T07:43:50.422Z,19.20
2019-01-31T07:46:21.048Z,18.23
2019-01-31T07:48:51.312Z,18.30
2019-01-31T07:51:21.801Z,17.90
2019-01-31T07:53:52.076Z,19.17
2019-01-31T07:56:22.289Z,20.37
2019-01-31T07:58:52.448Z,19.23
2019-01-31T08:01:22.806Z,20.87
2019-01-31T08:04:02.252Z,20.63
2019-01-31T08:06:25.301Z,18.77
2019-01-31T08:08:55.896Z,18.03
2019-01-31T08:11:26.510Z,16.67
2019-01-31T08:13:57.096Z,16.80
2019-01-31T08:16:27.368Z,15.70
2019-01-31T08:18:57.860Z,16.40
2019-01-31T08:21:28.140Z,17.13
2019-01-31T08:23:58.402Z,17.17
2019-01-31T08:26:28.955Z,15.27
2019-01-31T08:28:59.636Z,15.50
2019-01-31T08:31:29.914Z,15.67
2019-01-31T08:34:00.184Z,15.63
2019-01-31T08:36:31.282Z,16.13
2019-01-31T08:39:01.520Z,15.63
2019-01-31T08:41:31.799Z,15.73
2019-01-31T08:44:02.025Z,15.50
2019-01-31T08:46:32.642Z,15.70
2019-01-31T08:49:03.862Z,14.60
2019-01-31T08:51:34.094Z,15.10
2019-01-31T08:54:05.136Z,16.07
2019-01-31T08:56:35.338Z,16.40
2019-01-31T08:59:05.884Z,17.10
2019-01-31T09:01:36.100Z,17.03
2019-01-31T09:04:06.413Z,17.47
2019-01-31T09:06:36.652Z,17.03
2019-01-31T09:09:10.643Z,15.60
2019-01-31T09:11:40.821Z,18.00
2019-01-31T09:14:11.343Z,14.67
2019-01-31T09:16:41.850Z,14.67
2019-01-31T09:19:12.025Z,14.30
2019-01-31T09:21:59.327Z,13.53
2019-01-31T09:24:49.797Z,13.40
2019-01-31T09:27:58.202Z,12.03
2019-01-31T09:30:47.488Z,13.30
2019-01-31T09:33:59.935Z,13.07
2019-01-31T09:37:23.573Z,12.43
2019-01-31T09:40:24.394Z,13.57
2019-01-31T09:43:23.753Z,14.00
2019-01-31T09:46:19.501Z,16.00
2019-01-31T09:49:34.473Z,15.77
2019-01-31T09:52:25.651Z,17.17
2019-01-31T09:55:29.949Z,16.83
2019-01-31T09:58:28.067Z,15.17
2019-01-31T10:01:35.158Z,16.00
2019-01-31T10:04:58.805Z,15.63
2019-01-31T10:08:14.161Z,14.90
2019-01-31T10:11:11.605Z,14.17
2019-01-31T10:14:09.045Z,13.13
2019-01-31T10:17:03.026Z,12.60
2019-01-31T10:19:50.054Z,11.80
2019-01-31T10:23:19.926Z,10.67
2019-01-31T10:26:46.862Z,13.47
2019-01-31T10:30:01.702Z,15.40
2019-01-31T10:33:16.241Z,14.90
2019-01-31T10:36:30.585Z,12.70
2019-01-31T10:39:47.646Z,12.67
2019-01-31T10:42:54.272Z,10.83
2019-01-31T10:46:24.696Z,9.97
2019-01-31T10:49:57.328Z,10.03
2019-01-31T10:52:54.085Z,10.70
2019-01-31T10:56:08.544Z,9.80
2019-01-31T10:59:09.686Z,10.43
2019-01-31T11:02:30.013Z,10.40
2019-01-31T11:05:52.374Z,9.47
2019-01-31T11:08:56.352Z,9.40
2019-01-31T11:12:06.894Z,9.57
2019-01-31T11:15:21.716Z,9.43
2019-01-31T11:18:09.468Z,10.97
2019-01-31T11:21:16.005Z,10.93
2019-01-31T11:24:37.639Z,11.00
2019-01-31T11:27:35.331Z,10.67
2019-01-31T11:30:45.711Z,10.83
2019-01-31T11:34:03.821Z,11.50
2019-01-31T11:37:21.381Z,11.17
2019-01-31T11:40:44.781Z,10.27
2019-01-31T11:43:48.349Z,10.60
2019-01-31T11:46:25.587Z,10.20
2019-01-31T11:49:36.631Z,11.27
2019-01-31T11:52:51.681Z,10.30
2019-01-31T11:56:01.943Z,10.82
2019-01-31T11:59:03.103Z,11.63
2019-01-31T12:01:33.758Z,10.43
2019-01-31T12:04:17.709Z,10.90
2019-01-31T12:06:48.651Z,9.70
2019-01-31T12:09:22.570Z,10.27
2019-01-31T12:11:53.155Z,9.63
2019-01-31T12:14:23.465Z,10.33
2019-01-31T12:16:53.866Z,10.67
2019-01-31T12:19:25.112Z,10.77
2019-01-31T12:21:55.458Z,11.67
2019-01-31T12:24:25.786Z,11.93
2019-01-31T12:26:56.510Z,13.17
2019-01-31T12:29:27.232Z,12.53
2019-01-31T12:31:57.486Z,12.07
2019-01-31T12:34:28.080Z,12.93
2019-01-31T12:36:58.390Z,13.30
2019-01-31T12:39:28.660Z,14.07
2019-01-31T12:41:58.959Z,13.30
2019-01-31T12:44:29.180Z,14.43
2019-01-31T12:46:59.354Z,13.97
2019-01-31T12:49:30.314Z,15.43
2019-01-31T12:52:00.512Z,13.63
2019-01-31T12:54:30.759Z,13.17
2019-01-31T12:57:01.368Z,12.80
2019-01-31T12:59:31.579Z,13.13
2019-01-31T13:02:01.865Z,13.60
2019-01-31T13:04:32.072Z,14.27
2019-01-31T13:07:02.553Z,15.63
2019-01-31T13:09:32.774Z,14.73
2019-01-31T13:12:02.999Z,14.67
2019-01-31T13:14:33.260Z,16.03
2019-01-31T13:17:04.218Z,14.80
2019-01-31T13:19:34.515Z,15.10
2019-01-31T13:22:04.825Z,15.37
2019-01-31T13:24:35.383Z,15.43
2019-01-31T13:27:06.396Z,15.33
2019-01-31T13:29:36.963Z,15.27
2019-01-31T13:32:07.606Z,14.17
2019-01-31T13:34:37.769Z,14.60
2019-01-31T13:37:08.489Z,14.43
2019-01-31T13:39:38.685Z,16.53
2019-01-31T13:42:09.365Z,18.63
2019-01-31T13:44:40.173Z,18.40
2019-01-31T13:47:10.429Z,19.77
2019-01-31T13:49:40.697Z,20.20
2019-01-31T13:52:11.515Z,20.70
2019-01-31T13:54:42.533Z,20.73
2019-01-31T13:57:12.823Z,19.63
2019-01-31T13:59:43.102Z,18.60
2019-01-31T14:02:13.376Z,19.80
2019-01-31T14:04:44.034Z,18.90
2019-01-31T14:07:14.605Z,19.97
2019-01-31T14:09:45.154Z,19.77
2019-01-31T14:12:15.396Z,18.57
2019-01-31T14:14:46.020Z,18.60
2019-01-31T14:17:16.262Z,16.10
2019-01-31T14:19:46.588Z,14.87
2019-01-31T14:22:16.926Z,16.13
2019-01-31T14:24:47.171Z,14.90
2019-01-31T14:27:17.470Z,16.33
2019-01-31T14:29:48.073Z,14.83
2019-01-31T14:32:19.948Z,14.77
2019-01-31T14:34:50.245Z,14.67
2019-01-31T14:37:20.426Z,15.23
2019-01-31T14:39:50.714Z,15.27
2019-01-31T14:42:20.929Z,13.40
2019-01-31T14:44:51.743Z,13.67
2019-01-31T14:47:21.971Z,14.40
2019-01-31T14:49:52.254Z,12.97
2019-01-31T14:52:22.457Z,14.43
2019-01-31T14:54:52.752Z,14.80
2019-01-31T14:57:23.426Z,16.60
2019-01-31T14:59:53.941Z,15.57
2019-01-31T15:02:24.341Z,15.33
2019-01-31T15:04:54.656Z,14.63
2019-01-31T15:07:24.890Z,15.17
2019-01-31T15:09:55.065Z,15.17
2019-01-31T15:12:25.268Z,15.03
2019-01-31T15:14:55.537Z,14.97
2019-01-31T15:17:26.268Z,13.37
2019-01-31T15:19:56.634Z,13.63
2019-01-31T15:22:26.884Z,12.87
2019-01-31T15:24:57.526Z,12.07
2019-01-31T15:27:28.079Z,12.17
2019-01-31T15:29:58.705Z,12.00
2019-01-31T15:32:29.384Z,11.70
2019-01-31T15:34:59.594Z,11.73
2019-01-31T15:37:30.280Z,12.93
2019-01-31T15:40:01.032Z,12.70
2019-01-31T15:42:31.238Z,13.13
2019-01-31T15:45:01.505Z,13.83
2019-01-31T15:47:31.661Z,14.47
2019-01-31T15:50:02.403Z,15.20
2019-01-31T15:52:33.003Z,15.50
2019-01-31T15:55:03.563Z,15.77
2019-01-31T15:57:34.567Z,15.40
2019-01-31T16:00:08.604Z,16.07
2019-01-31T16:02:38.801Z,16.87
2019-01-31T16:05:18.807Z,16.40
2019-01-31T16:07:42.372Z,16.77
2019-01-31T16:10:13.484Z,17.43
2019-01-31T16:12:43.777Z,17.17
2019-01-31T16:15:14.826Z,17.47
2019-01-31T16:17:45.505Z,17.53
2019-01-31T16:20:15.857Z,18.33
2019-01-31T16:22:46.199Z,18.27
2019-01-31T16:25:16.775Z,18.20
2019-01-31T16:27:47.004Z,17.30
2019-01-31T16:30:18.383Z,18.33
2019-01-31T16:32:49.028Z,17.47
2019-01-31T16:35:19.331Z,16.73
2019-01-31T16:37:50.528Z,18.10
2019-01-31T16:40:21.092Z,18.33
2019-01-31T16:42:51.509Z,19.57
2019-01-31T16:45:22.129Z,20.70
2019-01-31T16:47:52.696Z,20.40
2019-01-31T16:50:23.077Z,20.37
2019-01-31T16:52:53.661Z,20.03
2019-01-31T16:55:24.993Z,20.30
2019-01-31T16:57:55.349Z,19.80
2019-01-31T17:00:27.976Z,19.77
2019-01-31T17:02:58.675Z,18.07
2019-01-31T17:05:30.613Z,17.47
2019-01-31T17:08:01.249Z,17.60
2019-01-31T17:10:31.545Z,18.63
2019-01-31T17:13:02.280Z,19.93
2019-01-31T17:15:32.640Z,19.47
2019-01-31T17:18:03.295Z,20.53
2019-01-31T17:20:44.264Z,20.00
2019-01-31T17:23:14.797Z,21.33
2019-01-31T17:25:45.129Z,21.50
2019-01-31T17:28:15.738Z,22.27
2019-01-31T17:30:46.089Z,21.60
2019-01-31T17:33:16.301Z,21.87
2019-01-31T17:35:46.965Z,20.60
2019-01-31T17:38:17.161Z,19.77
2019-01-31T17:40:47.422Z,20.60
2019-01-31T17:43:17.787Z,21.37
2019-01-31T17:45:48.214Z,21.53
2019-01-31T17:48:18.530Z,22.00
2019-01-31T17:50:49.144Z,21.53
2019-01-31T17:53:19.373Z,21.47
2019-01-31T17:55:49.603Z,24.60
2019-01-31T17:58:19.818Z,31.43
2019-01-31T18:01:08.025Z,25.50
2019-01-31T18:03:38.324Z,29.43
2019-01-31T18:06:08.640Z,24.90
2019-01-31T18:08:39.146Z,26.27
2019-01-31T18:11:09.912Z,25.40
2019-01-31T18:13:40.383Z,39.37
2019-01-31T18:16:10.911Z,30.30
2019-01-31T18:18:41.213Z,29.70
2019-01-31T18:21:13.019Z,25.37
2019-01-31T18:23:44.035Z,29.00
2019-01-31T18:26:14.270Z,28.37
2019-01-31T18:28:44.559Z,26.97
2019-01-31T18:31:14.713Z,24.10
2019-01-31T18:33:44.966Z,26.17
2019-01-31T18:36:15.513Z,26.67
2019-01-31T18:38:45.831Z,24.90
2019-01-31T18:41:16.104Z,25.37
2019-01-31T18:43:46.655Z,26.23
2019-01-31T18:46:17.274Z,27.07
2019-01-31T18:48:47.858Z,27.50
2019-01-31T18:51:18.108Z,28.07
2019-01-31T18:53:48.660Z,26.57
2019-01-31T18:56:19.753Z,27.13
2019-01-31T18:58:50.309Z,26.83
2019-01-31T19:01:21.464Z,27.67
2019-01-31T19:03:51.784Z,27.27
2019-01-31T19:06:22.090Z,28.23
2019-01-31T19:08:52.718Z,30.33
2019-01-31T19:11:23.944Z,28.87
2019-01-31T19:13:54.158Z,28.77
2019-01-31T19:16:24.409Z,27.87
2019-01-31T19:18:54.619Z,25.97
2019-01-31T19:21:25.271Z,26.67
2019-01-31T19:23:55.489Z,26.03
2019-01-31T19:26:26.022Z,24.73
2019-01-31T19:28:56.241Z,25.20
2019-01-31T19:31:26.541Z,26.23
2019-01-31T19:33:57.061Z,25.80
2019-01-31T19:36:27.640Z,28.33
2019-01-31T19:38:57.995Z,33.17
2019-01-31T19:41:28.216Z,33.83
2019-01-31T19:43:58.788Z,39.60
2019-01-31T19:46:29.337Z,44.07
2019-01-31T19:48:59.694Z,110.43
2019-01-31T19:51:30.805Z,34.10
2019-01-31T19:54:01.052Z,48.47
2019-01-31T19:56:31.676Z,37.57
2019-01-31T19:59:01.875Z,26.63
2019-01-31T20:01:32.534Z,24.60
2019-01-31T20:04:02.742Z,25.07
2019-01-31T20:06:32.992Z,23.00
2019-01-31T20:09:04.786Z,24.67
2019-01-31T20:11:35.378Z,24.60
2019-01-31T20:14:05.648Z,24.40
2019-01-31T20:16:35.940Z,22.87
2019-01-31T20:19:06.191Z,23.50
2019-01-31T20:21:36.413Z,23.27
2019-01-31T20:24:06.628Z,22.90
2019-01-31T20:26:36.842Z,22.13
2019-01-31T20:29:07.051Z,21.73
2019-01-31T20:31:37.294Z,19.90
2019-01-31T20:34:07.790Z,21.43
2019-01-31T20:36:38.082Z,21.83
2019-01-31T20:39:09.813Z,20.63
2019-01-31T20:41:40.487Z,20.33
2019-01-31T20:44:10.705Z,21.43
2019-01-31T20:46:41.035Z,19.63
2019-01-31T20:49:11.295Z,20.57
2019-01-31T20:51:41.565Z,23.03
2019-01-31T20:54:12.101Z,20.43
2019-01-31T20:56:42.393Z,22.27
2019-01-31T20:59:12.628Z,22.87
2019-01-31T21:01:42.901Z,23.07
2019-01-31T21:04:13.558Z,20.47
2019-01-31T21:06:43.847Z,18.70
2019-01-31T21:09:14.806Z,24.27
2019-01-31T21:11:45.105Z,19.70
2019-01-31T21:14:15.624Z,20.93
2019-01-31T21:16:51.962Z,21.23
2019-01-31T21:19:18.199Z,19.83
2019-01-31T21:21:48.456Z,20.03
2019-01-31T21:24:19.754Z,20.77
2019-01-31T21:26:50.053Z,20.27
2019-01-31T21:29:20.325Z,19.97
2019-01-31T21:31:50.555Z,19.70
2019-01-31T21:34:20.756Z,19.30
2019-01-31T21:36:51.084Z,18.83
2019-01-31T21:39:21.296Z,19.77
2019-01-31T21:41:51.547Z,18.73
2019-01-31T21:44:21.733Z,19.87
2019-01-31T21:47:02.415Z,20.30
2019-01-31T21:49:23.874Z,19.87
2019-01-31T21:51:54.195Z,20.03
2019-01-31T21:54:24.422Z,18.20
2019-01-31T21:56:54.667Z,17.93
2019-01-31T21:59:25.224Z,18.33
2019-01-31T22:01:55.508Z,18.50
2019-01-31T22:04:28.549Z,19.40
2019-01-31T22:06:57.926Z,16.93
2019-01-31T22:09:28.493Z,16.70
2019-01-31T22:11:58.793Z,17.40
2019-01-31T22:14:28.992Z,16.90
2019-01-31T22:16:59.211Z,16.17
2019-01-31T22:19:29.825Z,16.63
2019-01-31T22:22:00.353Z,15.33
2019-01-31T22:24:30.629Z,17.13
2019-01-31T22:27:00.892Z,15.77
2019-01-31T22:29:31.064Z,15.57
2019-01-31T22:32:01.324Z,16.67
2019-01-31T22:34:31.595Z,16.70
2019-01-31T22:37:01.833Z,15.93
2019-01-31T22:39:32.069Z,15.73
2019-01-31T22:42:02.543Z,16.30
2019-01-31T22:44:33.100Z,16.40
2019-01-31T22:47:03.295Z,17.07
2019-01-31T22:49:33.539Z,16.17
2019-01-31T22:52:04.239Z,16.07
2019-01-31T22:54:34.495Z,15.77
2019-01-31T22:57:05.141Z,16.07
2019-01-31T22:59:35.345Z,16.03
2019-01-31T23:02:14.666Z,16.13
2019-01-31T23:04:44.890Z,16.57
2019-01-31T23:07:15.199Z,15.07
2019-01-31T23:09:45.529Z,15.20
2019-01-31T23:12:15.721Z,15.63
2019-01-31T23:14:46.380Z,15.87
2019-01-31T23:17:16.937Z,16.63
2019-01-31T23:19:47.094Z,16.50
2019-01-31T23:22:17.336Z,16.13
2019-01-31T23:24:47.581Z,15.43
2019-01-31T23:27:17.793Z,16.47
2019-01-31T23:29:48.330Z,16.53
2019-01-31T23:32:19.079Z,16.33
2019-01-31T23:34:49.788Z,16.13
2019-01-31T23:37:19.947Z,15.97
2019-01-31T23:39:50.112Z,16.10
2019-01-31T23:42:20.301Z,15.57
2019-01-31T23:44:50.788Z,15.40
2019-01-31T23:47:21.080Z,16.07
2019-01-31T23:49:51.334Z,15.80
2019-01-31T23:52:21.569Z,16.03
2019-01-31T23:54:51.792Z,16.90
2019-01-31T23:57:22.063Z,16.23
2019-01-31T23:59:52.650Z,16.40
